Epworth Heights, Ohio
Current Conditions -  °F | °C
As of 11:53 AM on Thursday 30 Oct 2014 (Local Time) from KLUK Reporting Station
Broken Clouds Broken Clouds  
Wind Chill: 51°   Ceiling: 4000
Heat Index: 51°   Visibility: 10mi
Dew Point: 34°   Wind: 5mph
Humidity: 52%   Direction: NA
Pressure: 30.17"   Gusts: NA
Location:  39.23°N, 84.2394°W
Report Text: KLUK 301553Z VRB04KT 10SM BKN040 11/01 A3017 RMK AO2 SLP219 T01060011
Loading
Personal Weather Stations






























Interactive Weather Map
Tropical Storm Tracking
New forecast layout! Learn more

10-Day Weather Forecast

Advertisements
Track Severe Weather on mobile